DTA120 FNBJ-FNCA
Flight info
| Callsign | DTA120 |
|---|---|
| Flight time | 0h 49m |
| Altitude | 28000 |
| Route | VNA UR526 EXITO |
| Aircraft | B737/M-SDE2E3FGHIRWXY/LB1 |
Departure
| Time | 2026-04-29 18:39 |
|---|---|
| Airport | Dr. Antonio Agostinho Neto International Airport (FNBJ) |
Arrival
| Time | 2026-04-29 19:28 |
|---|---|
| Airport | Cabinda Airport (FNCA) |
| Time | Latitude | Longitude | Altitude | Speed | Heading |
|---|---|---|---|---|---|
| 2026-04-29 18:36 | -9.03893 | 13.50285 | 541 ft | 12 kts | 52° |
| 2026-04-29 18:36 | -9.03840 | 13.50354 | 544 ft | 10 kts | 45° |
| 2026-04-29 18:36 | -9.03814 | 13.50355 | 541 ft | 3 kts | 325° |
| 2026-04-29 18:37 | -9.03797 | 13.50343 | 542 ft | 3 kts | 325° |
| 2026-04-29 18:37 | -9.03780 | 13.50331 | 543 ft | 3 kts | 325° |
| 2026-04-29 18:37 | -9.03764 | 13.50319 | 542 ft | 3 kts | 319° |
| 2026-04-29 18:37 | -9.03749 | 13.50305 | 547 ft | 3 kts | 319° |
| 2026-04-29 18:38 | -9.03736 | 13.50291 | 550 ft | 3 kts | 291° |
| 2026-04-29 18:38 | -9.03780 | 13.50202 | 544 ft | 48 kts | 231° |
| 2026-04-29 18:38 | -9.04151 | 13.49668 | 548 ft | 134 kts | 234° |
| 2026-04-29 18:38 | -9.04801 | 13.48744 | 863 ft | 180 kts | 236° |
| 2026-04-29 18:39 | -9.05560 | 13.47635 | 1678 ft | 197 kts | 236° |
| 2026-04-29 18:39 | -9.06318 | 13.46470 | 2734 ft | 199 kts | 237° |
| 2026-04-29 18:39 | -9.06992 | 13.45137 | 3242 ft | 231 kts | 255° |
| 2026-04-29 18:39 | -9.07177 | 13.43467 | 3916 ft | 253 kts | 272° |
| 2026-04-29 18:40 | -9.06842 | 13.41639 | 4594 ft | 272 kts | 290° |
| 2026-04-29 18:40 | -9.05983 | 13.39947 | 5737 ft | 269 kts | 306° |
| 2026-04-29 18:40 | -9.04771 | 13.38489 | 6745 ft | 274 kts | 315° |
| 2026-04-29 18:40 | -9.03387 | 13.37108 | 7560 ft | 285 kts | 319° |
| 2026-04-29 18:41 | -8.98241 | 13.33640 | 10738 ft | 278 kts | 328° |
| 2026-04-29 18:41 | -8.96602 | 13.32596 | 11678 ft | 285 kts | 329° |
| 2026-04-29 18:42 | -8.94815 | 13.31524 | 11948 ft | 313 kts | 329° |
| 2026-04-29 18:42 | -8.92874 | 13.30331 | 12219 ft | 338 kts | 328° |
| 2026-04-29 18:42 | -8.90854 | 13.29015 | 12841 ft | 349 kts | 326° |
| 2026-04-29 18:42 | -8.88824 | 13.27635 | 13635 ft | 354 kts | 325° |
| 2026-04-29 18:43 | -8.86777 | 13.26219 | 14390 ft | 358 kts | 324° |
| 2026-04-29 18:43 | -8.84698 | 13.24814 | 15146 ft | 361 kts | 328° |
| 2026-04-29 18:43 | -8.82440 | 13.23680 | 15879 ft | 364 kts | 336° |
| 2026-04-29 18:43 | -8.80091 | 13.22684 | 16620 ft | 368 kts | 337° |
| 2026-04-29 18:44 | -8.77724 | 13.21721 | 17346 ft | 372 kts | 338° |
| 2026-04-29 18:44 | -8.75287 | 13.20736 | 18060 ft | 376 kts | 338° |
| 2026-04-29 18:44 | -8.72811 | 13.19729 | 18708 ft | 380 kts | 337° |
| 2026-04-29 18:44 | -8.70359 | 13.18723 | 19364 ft | 382 kts | 337° |
| 2026-04-29 18:45 | -8.67886 | 13.17702 | 20026 ft | 384 kts | 337° |
| 2026-04-29 18:45 | -8.65401 | 13.16671 | 20675 ft | 387 kts | 337° |
| 2026-04-29 18:45 | -8.62923 | 13.15639 | 21601 ft | 380 kts | 337° |
| 2026-04-29 18:45 | -8.60507 | 13.14631 | 22611 ft | 372 kts | 337° |
| 2026-04-29 18:46 | -8.58121 | 13.13635 | 23507 ft | 369 kts | 337° |
| 2026-04-29 18:46 | -8.55756 | 13.12648 | 24168 ft | 368 kts | 337° |
| 2026-04-29 18:46 | -8.53377 | 13.11654 | 24707 ft | 371 kts | 337° |
| 2026-04-29 18:46 | -8.50997 | 13.10660 | 24878 ft | 368 kts | 337° |
| 2026-04-29 18:47 | -8.48629 | 13.09671 | 24919 ft | 369 kts | 337° |
| 2026-04-29 18:47 | -8.46245 | 13.08676 | 24932 ft | 371 kts | 338° |
| 2026-04-29 18:47 | -8.43855 | 13.07678 | 24941 ft | 371 kts | 338° |
| 2026-04-29 18:47 | -8.41460 | 13.06678 | 24944 ft | 371 kts | 338° |
| 2026-04-29 18:48 | -8.39073 | 13.05682 | 24943 ft | 372 kts | 338° |
| 2026-04-29 18:48 | -8.36677 | 13.04682 | 24937 ft | 372 kts | 338° |
| 2026-04-29 18:48 | -8.34281 | 13.03683 | 24934 ft | 372 kts | 338° |
| 2026-04-29 18:48 | -8.31915 | 13.02696 | 24938 ft | 372 kts | 338° |
| 2026-04-29 18:49 | -8.29487 | 13.01683 | 24934 ft | 372 kts | 338° |
| 2026-04-29 18:49 | -8.27096 | 13.00686 | 24933 ft | 372 kts | 338° |
| 2026-04-29 18:49 | -8.24698 | 12.99686 | 24935 ft | 372 kts | 338° |
| 2026-04-29 18:49 | -8.22333 | 12.98700 | 24936 ft | 372 kts | 338° |
| 2026-04-29 18:50 | -8.19943 | 12.97703 | 24930 ft | 372 kts | 338° |
| 2026-04-29 18:50 | -8.17550 | 12.96706 | 24932 ft | 371 kts | 338° |
| 2026-04-29 18:50 | -8.15164 | 12.95711 | 24932 ft | 371 kts | 338° |
| 2026-04-29 18:50 | -8.12767 | 12.94713 | 24931 ft | 371 kts | 338° |
| 2026-04-29 18:51 | -8.10382 | 12.93719 | 24934 ft | 371 kts | 338° |
| 2026-04-29 18:51 | -8.07992 | 12.92723 | 24935 ft | 371 kts | 338° |
| 2026-04-29 18:51 | -8.05607 | 12.91730 | 24935 ft | 371 kts | 338° |
| 2026-04-29 18:51 | -8.03221 | 12.90736 | 24932 ft | 371 kts | 338° |
| 2026-04-29 18:52 | -8.00831 | 12.89741 | 24936 ft | 371 kts | 338° |
| 2026-04-29 18:52 | -7.98445 | 12.88747 | 24935 ft | 371 kts | 338° |
| 2026-04-29 18:52 | -7.96051 | 12.87750 | 24934 ft | 371 kts | 338° |
| 2026-04-29 18:52 | -7.93668 | 12.86758 | 24936 ft | 372 kts | 338° |
| 2026-04-29 18:53 | -7.91277 | 12.85763 | 24934 ft | 372 kts | 338° |
| 2026-04-29 18:53 | -7.88880 | 12.84765 | 24933 ft | 372 kts | 338° |
| 2026-04-29 18:53 | -7.86479 | 12.83766 | 24934 ft | 372 kts | 338° |
| 2026-04-29 18:53 | -7.84085 | 12.82770 | 24937 ft | 372 kts | 338° |
| 2026-04-29 18:54 | -7.81689 | 12.81773 | 24932 ft | 372 kts | 338° |
| 2026-04-29 18:54 | -7.79293 | 12.80777 | 24934 ft | 372 kts | 338° |
| 2026-04-29 18:54 | -7.76898 | 12.79781 | 24935 ft | 372 kts | 338° |
| 2026-04-29 18:54 | -7.74505 | 12.78785 | 24933 ft | 372 kts | 338° |
| 2026-04-29 18:55 | -7.72109 | 12.77789 | 24937 ft | 372 kts | 338° |
| 2026-04-29 18:55 | -7.69711 | 12.76792 | 24936 ft | 372 kts | 338° |
| 2026-04-29 18:55 | -7.67318 | 12.75797 | 24936 ft | 372 kts | 338° |
| 2026-04-29 18:55 | -7.64924 | 12.74802 | 24939 ft | 372 kts | 338° |
| 2026-04-29 18:56 | -7.62521 | 12.73803 | 24934 ft | 372 kts | 338° |
| 2026-04-29 18:56 | -7.60126 | 12.72808 | 24934 ft | 372 kts | 338° |
| 2026-04-29 18:56 | -7.57728 | 12.71811 | 24936 ft | 373 kts | 338° |
| 2026-04-29 18:56 | -7.55331 | 12.70815 | 24936 ft | 373 kts | 338° |
| 2026-04-29 18:57 | -7.52935 | 12.69820 | 24938 ft | 373 kts | 338° |
| 2026-04-29 18:57 | -7.50536 | 12.68824 | 24935 ft | 373 kts | 338° |
| 2026-04-29 18:57 | -7.48136 | 12.67827 | 24937 ft | 373 kts | 338° |
| 2026-04-29 18:57 | -7.45736 | 12.66830 | 24938 ft | 373 kts | 338° |
| 2026-04-29 18:58 | -7.43332 | 12.65832 | 24937 ft | 373 kts | 339° |
| 2026-04-29 18:58 | -7.40962 | 12.64848 | 24935 ft | 373 kts | 339° |
| 2026-04-29 18:58 | -7.38564 | 12.63852 | 24938 ft | 373 kts | 339° |
| 2026-04-29 18:58 | -7.36155 | 12.62853 | 24936 ft | 373 kts | 339° |
| 2026-04-29 18:59 | -7.33756 | 12.61857 | 24936 ft | 373 kts | 339° |
| 2026-04-29 18:59 | -7.31356 | 12.60861 | 24937 ft | 373 kts | 339° |
| 2026-04-29 18:59 | -7.28921 | 12.59850 | 24939 ft | 373 kts | 339° |
| 2026-04-29 18:59 | -7.26517 | 12.58853 | 24938 ft | 373 kts | 339° |
| 2026-04-29 19:00 | -7.24141 | 12.57867 | 24937 ft | 374 kts | 339° |
| 2026-04-29 19:00 | -7.21735 | 12.56869 | 24937 ft | 374 kts | 339° |
| 2026-04-29 19:00 | -7.19331 | 12.55872 | 24937 ft | 374 kts | 339° |
| 2026-04-29 19:00 | -7.16918 | 12.54871 | 24937 ft | 374 kts | 339° |
| 2026-04-29 19:01 | -7.14506 | 12.53871 | 24937 ft | 374 kts | 339° |
| 2026-04-29 19:01 | -7.12098 | 12.52872 | 24936 ft | 374 kts | 339° |
| 2026-04-29 19:01 | -7.09691 | 12.51874 | 24939 ft | 374 kts | 339° |
| 2026-04-29 19:01 | -7.07282 | 12.50875 | 24942 ft | 374 kts | 339° |
| 2026-04-29 19:02 | -7.04869 | 12.49875 | 24938 ft | 375 kts | 339° |
| 2026-04-29 19:02 | -7.03271 | 12.49212 | 24935 ft | 375 kts | 339° |
| 2026-04-29 19:02 | -7.00861 | 12.48214 | 24936 ft | 375 kts | 339° |
| 2026-04-29 19:02 | -6.98438 | 12.47251 | 24933 ft | 374 kts | 343° |
| 2026-04-29 19:03 | -6.95094 | 12.46278 | 24945 ft | 374 kts | 346° |
| 2026-04-29 19:03 | -6.92581 | 12.45603 | 24941 ft | 374 kts | 346° |
| 2026-04-29 19:03 | -6.90917 | 12.45161 | 24939 ft | 374 kts | 346° |
| 2026-04-29 19:03 | -6.87550 | 12.44266 | 24935 ft | 374 kts | 346° |
| 2026-04-29 19:04 | -6.85060 | 12.43598 | 24934 ft | 374 kts | 346° |
| 2026-04-29 19:04 | -6.82549 | 12.42919 | 24937 ft | 374 kts | 346° |
| 2026-04-29 19:04 | -6.80045 | 12.42239 | 24941 ft | 374 kts | 346° |
| 2026-04-29 19:04 | -6.77533 | 12.41554 | 24943 ft | 374 kts | 346° |
| 2026-04-29 19:05 | -6.75020 | 12.40868 | 24942 ft | 374 kts | 346° |
| 2026-04-29 19:05 | -6.73324 | 12.40404 | 24939 ft | 374 kts | 346° |
| 2026-04-29 19:05 | -6.70808 | 12.39716 | 24938 ft | 374 kts | 346° |
| 2026-04-29 19:05 | -6.68294 | 12.39029 | 24939 ft | 374 kts | 346° |
| 2026-04-29 19:06 | -6.64970 | 12.38120 | 24938 ft | 374 kts | 346° |
| 2026-04-29 19:06 | -6.63300 | 12.37664 | 24942 ft | 374 kts | 346° |
| 2026-04-29 19:06 | -6.57470 | 12.36070 | 24938 ft | 374 kts | 346° |
| 2026-04-29 19:07 | -6.55742 | 12.35597 | 24878 ft | 374 kts | 346° |
| 2026-04-29 19:07 | -6.54034 | 12.35131 | 24655 ft | 376 kts | 346° |
| 2026-04-29 19:07 | -6.50694 | 12.34218 | 24187 ft | 375 kts | 346° |
| 2026-04-29 19:07 | -6.48191 | 12.33534 | 23790 ft | 370 kts | 346° |
| 2026-04-29 19:08 | -6.45687 | 12.32849 | 23312 ft | 364 kts | 346° |
| 2026-04-29 19:08 | -6.43258 | 12.32185 | 22837 ft | 358 kts | 346° |
| 2026-04-29 19:08 | -6.40910 | 12.31544 | 22402 ft | 351 kts | 346° |
| 2026-04-29 19:08 | -6.38541 | 12.30896 | 21967 ft | 345 kts | 346° |
| 2026-04-29 19:09 | -6.36243 | 12.30269 | 21546 ft | 339 kts | 346° |
| 2026-04-29 19:09 | -6.34004 | 12.29658 | 21149 ft | 335 kts | 346° |
| 2026-04-29 19:09 | -6.31748 | 12.29042 | 20765 ft | 338 kts | 345° |
| 2026-04-29 19:09 | -6.29454 | 12.28417 | 20339 ft | 345 kts | 345° |
| 2026-04-29 19:10 | -6.27124 | 12.27781 | 19907 ft | 351 kts | 345° |
| 2026-04-29 19:10 | -6.24751 | 12.27134 | 19464 ft | 353 kts | 345° |
| 2026-04-29 19:10 | -6.22381 | 12.26487 | 19027 ft | 352 kts | 345° |
| 2026-04-29 19:10 | -6.20011 | 12.25840 | 18576 ft | 352 kts | 345° |
| 2026-04-29 19:11 | -6.17646 | 12.25194 | 18135 ft | 352 kts | 344° |
| 2026-04-29 19:11 | -6.15279 | 12.24548 | 17650 ft | 352 kts | 345° |
| 2026-04-29 19:11 | -6.12921 | 12.23904 | 17198 ft | 350 kts | 345° |
| 2026-04-29 19:11 | -6.10576 | 12.23264 | 16763 ft | 348 kts | 345° |
| 2026-04-29 19:12 | -6.08246 | 12.22629 | 16333 ft | 346 kts | 345° |
| 2026-04-29 19:12 | -6.05921 | 12.21994 | 15882 ft | 345 kts | 345° |
| 2026-04-29 19:12 | -6.03600 | 12.21361 | 15447 ft | 344 kts | 345° |
| 2026-04-29 19:12 | -6.02071 | 12.20944 | 15143 ft | 344 kts | 345° |
| 2026-04-29 19:13 | -5.98991 | 12.20104 | 14554 ft | 343 kts | 345° |
| 2026-04-29 19:13 | -5.96691 | 12.19477 | 14114 ft | 342 kts | 345° |
| 2026-04-29 19:13 | -5.94397 | 12.18851 | 13668 ft | 341 kts | 345° |
| 2026-04-29 19:13 | -5.92111 | 12.18219 | 13171 ft | 340 kts | 344° |
| 2026-04-29 19:14 | -5.89847 | 12.17466 | 12599 ft | 342 kts | 341° |
| 2026-04-29 19:14 | -5.87610 | 12.16649 | 12136 ft | 340 kts | 341° |
| 2026-04-29 19:14 | -5.85414 | 12.15836 | 11712 ft | 332 kts | 341° |
| 2026-04-29 19:14 | -5.83272 | 12.15048 | 11273 ft | 321 kts | 341° |
| 2026-04-29 19:15 | -5.81199 | 12.14294 | 10863 ft | 311 kts | 342° |
| 2026-04-29 19:15 | -5.79189 | 12.13570 | 10469 ft | 302 kts | 342° |
| 2026-04-29 19:15 | -5.77235 | 12.12869 | 10127 ft | 292 kts | 342° |
| 2026-04-29 19:15 | -5.75379 | 12.12203 | 10025 ft | 274 kts | 342° |
| 2026-04-29 19:16 | -5.73616 | 12.11573 | 9708 ft | 274 kts | 343° |
| 2026-04-29 19:16 | -5.71798 | 12.10925 | 9377 ft | 281 kts | 343° |
| 2026-04-29 19:16 | -5.69881 | 12.10537 | 9037 ft | 281 kts | 359° |
| 2026-04-29 19:16 | -5.67948 | 12.10500 | 8745 ft | 271 kts | 2° |
| 2026-04-29 19:17 | -5.66142 | 12.10494 | 8637 ft | 249 kts | 2° |
| 2026-04-29 19:17 | -5.64478 | 12.10485 | 8473 ft | 230 kts | 2° |
| 2026-04-29 19:17 | -5.62919 | 12.10472 | 8343 ft | 212 kts | 2° |
| 2026-04-29 19:17 | -5.61462 | 12.10456 | 7988 ft | 208 kts | 1° |
| 2026-04-29 19:18 | -5.60048 | 12.10438 | 7656 ft | 202 kts | 1° |
| 2026-04-29 19:18 | -5.59107 | 12.10426 | 7467 ft | 196 kts | 1° |
| 2026-04-29 19:18 | -5.57358 | 12.10399 | 7181 ft | 185 kts | 1° |
| 2026-04-29 19:18 | -5.56094 | 12.10379 | 6882 ft | 184 kts | 1° |
| 2026-04-29 19:19 | -5.54802 | 12.10358 | 6579 ft | 183 kts | 1° |
| 2026-04-29 19:19 | -5.53531 | 12.10336 | 6276 ft | 182 kts | 0° |
| 2026-04-29 19:19 | -5.52269 | 12.10314 | 5965 ft | 181 kts | 0° |
| 2026-04-29 19:19 | -5.51011 | 12.10292 | 5640 ft | 181 kts | 0° |
| 2026-04-29 19:20 | -5.49755 | 12.10269 | 5356 ft | 179 kts | 0° |
| 2026-04-29 19:20 | -5.48522 | 12.10248 | 5119 ft | 175 kts | 360° |
| 2026-04-29 19:20 | -5.47310 | 12.10228 | 4965 ft | 175 kts | 360° |
| 2026-04-29 19:20 | -5.46072 | 12.10209 | 4758 ft | 180 kts | 360° |
| 2026-04-29 19:21 | -5.44804 | 12.10189 | 4520 ft | 184 kts | 360° |
| 2026-04-29 19:21 | -5.43552 | 12.10169 | 4367 ft | 176 kts | 360° |
| 2026-04-29 19:21 | -5.42335 | 12.10149 | 4247 ft | 173 kts | 360° |
| 2026-04-29 19:21 | -5.41149 | 12.10275 | 4142 ft | 173 kts | 27° |
| 2026-04-29 19:22 | -5.40366 | 12.11132 | 4092 ft | 171 kts | 75° |
| 2026-04-29 19:22 | -5.40279 | 12.12310 | 4085 ft | 176 kts | 89° |
| 2026-04-29 19:22 | -5.40251 | 12.13558 | 3992 ft | 179 kts | 89° |
| 2026-04-29 19:22 | -5.40224 | 12.14815 | 3898 ft | 177 kts | 89° |
| 2026-04-29 19:23 | -5.40200 | 12.16040 | 3730 ft | 180 kts | 89° |
| 2026-04-29 19:23 | -5.40240 | 12.17282 | 3508 ft | 177 kts | 107° |
| 2026-04-29 19:23 | -5.40960 | 12.18211 | 3320 ft | 170 kts | 157° |
| 2026-04-29 19:23 | -5.42123 | 12.18386 | 3192 ft | 169 kts | 175° |
| 2026-04-29 19:24 | -5.43308 | 12.18484 | 3029 ft | 173 kts | 176° |
| 2026-04-29 19:24 | -5.44515 | 12.18536 | 2799 ft | 173 kts | 179° |
| 2026-04-29 19:24 | -5.45702 | 12.18564 | 2580 ft | 168 kts | 179° |
| 2026-04-29 19:24 | -5.46839 | 12.18585 | 2360 ft | 163 kts | 180° |
| 2026-04-29 19:25 | -5.47953 | 12.18605 | 2163 ft | 158 kts | 180° |
| 2026-04-29 19:25 | -5.49063 | 12.18625 | 1958 ft | 162 kts | 180° |
| 2026-04-29 19:25 | -5.50180 | 12.18645 | 1733 ft | 158 kts | 180° |
| 2026-04-29 19:25 | -5.51276 | 12.18665 | 1537 ft | 156 kts | 180° |
| 2026-04-29 19:26 | -5.52367 | 12.18683 | 1340 ft | 155 kts | 180° |
| 2026-04-29 19:26 | -5.53085 | 12.18696 | 1189 ft | 155 kts | 180° |
| 2026-04-29 19:26 | -5.54478 | 12.18721 | 922 ft | 143 kts | 180° |
| 2026-04-29 19:26 | -5.55454 | 12.18739 | 755 ft | 139 kts | 179° |
| 2026-04-29 19:27 | -5.56421 | 12.18756 | 529 ft | 137 kts | 180° |
| 2026-04-29 19:27 | -5.57352 | 12.18776 | 348 ft | 131 kts | 179° |
| 2026-04-29 19:27 | -5.58267 | 12.18789 | 157 ft | 132 kts | 178° |
| 2026-04-29 19:27 | -5.59181 | 12.18810 | 72 ft | 122 kts | 179° |
| 2026-04-29 19:28 | -5.59655 | 12.18817 | 72 ft | 80 kts | 179° |
| 2026-04-29 19:28 | -5.59934 | 12.18823 | 62 ft | 2 kts | 154° |
| 2026-04-29 19:28 | -5.59933 | 12.18832 | 65 ft | 3 kts | 71° |
| 2026-04-29 19:28 | -5.59901 | 12.18842 | 70 ft | 6 kts | 348° |
| 2026-04-29 19:29 | -5.59875 | 12.18832 | 63 ft | 6 kts | 338° |
| 2026-04-29 19:29 | -5.59836 | 12.18818 | 70 ft | 6 kts | 346° |